createdAt,value
2022-08-02T00:00:40.261Z,34.00
2022-08-02T00:03:11.000Z,35.80
2022-08-02T00:05:38.903Z,36.20
2022-08-02T00:08:08.029Z,36.30
2022-08-02T00:10:35.699Z,36.30
2022-08-02T00:13:03.613Z,37.90
2022-08-02T00:15:31.288Z,36.60
2022-08-02T00:17:58.950Z,35.60
2022-08-02T00:20:26.721Z,35.30
2022-08-02T00:22:54.358Z,35.30
2022-08-02T00:25:22.023Z,35.50
2022-08-02T00:27:49.652Z,34.80
2022-08-02T00:30:17.782Z,35.20
2022-08-02T00:32:45.439Z,36.00
2022-08-02T00:35:13.190Z,35.30
2022-08-02T00:37:41.709Z,35.40
2022-08-02T00:40:10.447Z,36.70
2022-08-02T00:42:39.435Z,35.30
2022-08-02T00:45:08.196Z,34.00
2022-08-02T00:47:36.016Z,35.80
2022-08-02T00:50:04.465Z,35.60
2022-08-02T00:52:32.078Z,36.50
2022-08-02T00:54:59.709Z,36.50
2022-08-02T00:57:27.367Z,34.50
2022-08-02T00:59:55.039Z,36.50
2022-08-02T01:02:22.738Z,35.50
2022-08-02T01:04:50.581Z,37.10
2022-08-02T01:07:18.720Z,35.50
2022-08-02T01:09:46.882Z,35.40
2022-08-02T01:12:14.833Z,35.00
2022-08-02T01:14:45.255Z,34.80
2022-08-02T01:17:20.927Z,35.70
2022-08-02T01:20:06.146Z,32.90
2022-08-02T01:23:01.724Z,32.80
2022-08-02T01:25:55.274Z,31.80
2022-08-02T01:28:38.484Z,33.60
2022-08-02T01:31:27.936Z,34.80
2022-08-02T01:34:19.654Z,33.70
2022-08-02T01:36:55.039Z,33.90
2022-08-02T01:39:27.647Z,36.40
2022-08-02T01:42:01.256Z,36.80
2022-08-02T01:44:32.400Z,36.50
2022-08-02T01:47:04.033Z,36.70
2022-08-02T01:49:33.159Z,38.20
2022-08-02T01:52:20.331Z,37.50
2022-08-02T01:55:01.970Z,36.90
2022-08-02T01:57:35.385Z,36.70
2022-08-02T02:00:11.407Z,37.10
2022-08-02T02:02:42.922Z,35.80
2022-08-02T02:05:12.614Z,36.10
2022-08-02T02:07:41.323Z,34.30
2022-08-02T02:10:09.968Z,34.90
2022-08-02T02:12:39.712Z,36.40
2022-08-02T02:15:11.588Z,36.20
2022-08-02T02:18:10.587Z,34.70
2022-08-02T02:20:31.188Z,33.90
2022-08-02T02:22:59.097Z,35.80
2022-08-02T02:25:36.498Z,35.90
2022-08-02T02:28:12.454Z,33.90
2022-08-02T02:30:43.497Z,32.90
2022-08-02T02:33:11.836Z,33.50
2022-08-02T02:35:40.857Z,33.10
2022-08-02T02:38:14.100Z,35.90
2022-08-02T02:40:42.104Z,33.40
2022-08-02T02:43:11.007Z,34.20
2022-08-02T02:45:39.646Z,35.70
2022-08-02T02:48:07.508Z,34.90
2022-08-02T02:50:36.801Z,35.20
2022-08-02T02:53:04.925Z,36.20
2022-08-02T02:55:32.996Z,38.10
2022-08-02T02:58:02.073Z,37.60
2022-08-02T03:00:49.110Z,38.40
2022-08-02T03:03:17.072Z,37.30
2022-08-02T03:05:49.653Z,38.80
2022-08-02T03:08:17.268Z,38.40
2022-08-02T03:10:47.237Z,38.50
2022-08-02T03:13:15.375Z,38.20
2022-08-02T03:15:43.875Z,39.90
2022-08-02T03:18:29.865Z,41.00
2022-08-02T03:21:09.109Z,37.60
2022-08-02T03:23:37.486Z,39.00
2022-08-02T03:26:05.065Z,39.20
2022-08-02T03:28:32.744Z,37.50
2022-08-02T03:31:01.410Z,38.20
2022-08-02T03:33:30.604Z,39.30
2022-08-02T03:36:00.296Z,41.30
2022-08-02T03:38:31.185Z,40.10
2022-08-02T03:41:01.594Z,40.20
2022-08-02T03:43:29.871Z,40.40
2022-08-02T03:45:58.414Z,41.40
2022-08-02T03:48:33.897Z,41.30
2022-08-02T03:51:03.808Z,40.20
2022-08-02T03:53:31.486Z,39.60
2022-08-02T03:56:00.228Z,39.90
2022-08-02T03:58:27.866Z,39.40
2022-08-02T04:00:57.244Z,39.40
2022-08-02T04:03:25.946Z,40.70
2022-08-02T04:05:59.266Z,39.20
2022-08-02T04:08:37.995Z,39.10
2022-08-02T04:11:26.284Z,40.50
2022-08-02T04:13:56.870Z,38.90
2022-08-02T04:16:34.592Z,41.70
2022-08-02T04:19:04.281Z,42.20
2022-08-02T04:21:49.046Z,40.80
2022-08-02T04:24:32.267Z,40.20
2022-08-02T04:27:06.323Z,42.90
2022-08-02T04:29:47.963Z,41.30
2022-08-02T04:32:17.071Z,42.00
2022-08-02T04:35:11.233Z,41.10
2022-08-02T04:37:34.928Z,40.30
2022-08-02T04:40:03.069Z,40.50
2022-08-02T04:42:30.742Z,40.90
2022-08-02T04:44:58.540Z,42.90
2022-08-02T04:48:02.212Z,40.70
2022-08-02T04:50:13.810Z,40.90
2022-08-02T04:52:45.507Z,41.10
2022-08-02T04:55:14.161Z,39.80
2022-08-02T04:57:58.032Z,40.60
2022-08-02T05:00:27.978Z,39.90
2022-08-02T05:02:56.803Z,41.80
2022-08-02T05:05:24.851Z,41.50
2022-08-02T05:07:52.608Z,40.60
2022-08-02T05:10:20.472Z,42.60
2022-08-02T05:12:48.317Z,43.70
2022-08-02T05:15:18.391Z,43.00
2022-08-02T05:17:47.992Z,42.10
2022-08-02T05:20:17.975Z,41.80
2022-08-02T05:22:46.273Z,42.30
2022-08-02T05:25:14.460Z,41.70
2022-08-02T05:27:42.160Z,40.20
2022-08-02T05:30:10.363Z,39.80
2022-08-02T05:32:48.903Z,40.10
2022-08-02T05:35:21.796Z,39.90
2022-08-02T05:37:50.234Z,39.00
2022-08-02T05:40:25.338Z,38.70
2022-08-02T05:42:54.839Z,39.20
2022-08-02T05:45:23.143Z,38.30
2022-08-02T05:47:50.981Z,37.90
2022-08-02T05:50:19.586Z,40.70
2022-08-02T05:53:25.872Z,39.10
2022-08-02T05:56:00.184Z,40.40
2022-08-02T05:58:33.955Z,37.80
2022-08-02T06:01:03.199Z,38.70
2022-08-02T06:03:49.185Z,37.30
2022-08-02T06:06:23.312Z,39.00
2022-08-02T06:08:55.886Z,38.20
2022-08-02T06:11:25.009Z,37.20
2022-08-02T06:13:54.292Z,38.40
2022-08-02T06:16:22.726Z,37.40
2022-08-02T06:19:01.063Z,38.60
2022-08-02T06:22:32.271Z,36.40
2022-08-02T06:24:19.863Z,39.40
2022-08-02T06:26:52.648Z,39.40
2022-08-02T06:29:23.461Z,38.70
2022-08-02T06:31:52.953Z,38.30
2022-08-02T06:34:20.743Z,39.80
2022-08-02T06:36:54.289Z,39.60
2022-08-02T06:39:30.196Z,41.50
2022-08-02T06:41:59.537Z,38.10
2022-08-02T06:44:48.758Z,39.50
2022-08-02T06:47:18.680Z,39.70
2022-08-02T06:49:52.599Z,38.60
2022-08-02T06:52:28.344Z,39.00
2022-08-02T06:55:01.465Z,38.00
2022-08-02T06:57:30.179Z,38.30
2022-08-02T06:59:58.729Z,38.00
2022-08-02T07:02:26.437Z,38.20
2022-08-02T07:04:55.698Z,38.60
2022-08-02T07:07:23.748Z,36.80
2022-08-02T07:10:00.580Z,35.60
2022-08-02T07:12:30.947Z,37.30
2022-08-02T07:15:00.057Z,38.50
2022-08-02T07:17:28.871Z,37.70
2022-08-02T07:19:57.291Z,38.10
2022-08-02T07:22:27.219Z,37.30
2022-08-02T07:24:56.875Z,36.90
2022-08-02T07:27:25.585Z,37.40
2022-08-02T07:29:53.554Z,36.80
2022-08-02T07:32:24.578Z,34.80
2022-08-02T07:34:55.094Z,38.40
2022-08-02T07:37:54.230Z,36.70
2022-08-02T07:40:19.639Z,38.40
2022-08-02T07:42:52.054Z,37.30
2022-08-02T07:45:21.101Z,36.00
2022-08-02T07:47:49.562Z,37.10
2022-08-02T07:50:19.564Z,35.40
2022-08-02T07:52:49.519Z,35.40
2022-08-02T07:55:39.295Z,33.20
2022-08-02T07:58:11.236Z,32.70
2022-08-02T08:00:44.434Z,32.30
2022-08-02T08:03:12.713Z,32.80
2022-08-02T08:05:40.924Z,31.40
2022-08-02T08:08:12.271Z,30.50
2022-08-02T08:10:43.106Z,29.10
2022-08-02T08:13:10.749Z,29.00
2022-08-02T08:15:38.710Z,28.80
2022-08-02T08:18:06.624Z,29.30
2022-08-02T08:20:34.438Z,26.20
2022-08-02T08:23:02.154Z,27.60
2022-08-02T08:25:29.796Z,28.10
2022-08-02T08:27:57.689Z,25.70
2022-08-02T08:30:25.548Z,25.70
2022-08-02T08:32:53.163Z,23.60
2022-08-02T08:35:20.888Z,25.10
2022-08-02T08:37:49.384Z,23.00
2022-08-02T08:40:19.556Z,25.00
2022-08-02T08:42:48.308Z,23.90
2022-08-02T08:45:17.961Z,22.20
2022-08-02T08:47:51.033Z,22.30
2022-08-02T08:50:24.987Z,21.90
2022-08-02T08:53:03.907Z,22.00
2022-08-02T08:55:33.260Z,23.60
2022-08-02T08:58:02.621Z,21.90
2022-08-02T09:00:32.388Z,23.30
2022-08-02T09:03:06.795Z,21.20
2022-08-02T09:05:53.322Z,21.00
2022-08-02T09:08:34.147Z,22.70
2022-08-02T09:11:17.286Z,21.50
2022-08-02T09:13:56.796Z,20.40
2022-08-02T09:16:36.468Z,23.40
2022-08-02T09:19:18.823Z,19.90
2022-08-02T09:21:48.902Z,20.50
2022-08-02T09:24:53.771Z,18.80
2022-08-02T09:27:26.932Z,18.70
2022-08-02T09:30:12.011Z,18.10
2022-08-02T09:32:48.359Z,16.90
2022-08-02T09:36:07.269Z,15.80
2022-08-02T09:38:27.052Z,15.40
2022-08-02T09:40:55.215Z,14.90
2022-08-02T09:43:35.494Z,15.40
2022-08-02T09:46:18.425Z,14.60
2022-08-02T09:49:20.044Z,13.50
2022-08-02T09:51:52.935Z,14.80
2022-08-02T09:54:25.747Z,13.80
2022-08-02T09:56:56.317Z,13.40
2022-08-02T09:59:25.164Z,14.00
2022-08-02T10:01:58.857Z,12.70
2022-08-02T10:04:34.501Z,12.90
2022-08-02T10:07:21.719Z,14.30
2022-08-02T10:09:51.582Z,12.20
2022-08-02T10:12:22.258Z,12.20
2022-08-02T10:14:51.569Z,10.70
2022-08-02T10:17:21.085Z,10.50
2022-08-02T10:20:02.155Z,10.40
2022-08-02T10:22:33.999Z,10.30
2022-08-02T10:25:14.203Z,9.20
2022-08-02T10:28:05.494Z,9.30
2022-08-02T10:30:37.245Z,10.30
2022-08-02T10:33:06.402Z,9.40
2022-08-02T10:35:37.831Z,8.70
2022-08-02T10:38:09.010Z,8.40
2022-08-02T10:40:47.524Z,8.80
2022-08-02T10:43:37.248Z,7.80
2022-08-02T10:46:24.408Z,8.00
2022-08-02T10:49:38.126Z,9.10
2022-08-02T10:52:00.950Z,7.80
2022-08-02T10:55:01.992Z,8.10
2022-08-02T10:57:32.763Z,7.10
2022-08-02T11:00:17.309Z,7.00
2022-08-02T11:02:53.492Z,7.50
2022-08-02T11:05:43.463Z,7.20
2022-08-02T11:08:19.233Z,8.70
2022-08-02T11:10:47.133Z,7.00
2022-08-02T11:13:17.183Z,7.90
2022-08-02T11:15:47.829Z,6.60
2022-08-02T11:18:15.814Z,8.30
2022-08-02T11:20:44.103Z,6.50
2022-08-02T11:23:44.604Z,7.10
2022-08-02T11:26:28.889Z,7.20
2022-08-02T11:29:02.665Z,7.10
2022-08-02T11:31:39.367Z,7.30
2022-08-02T11:34:09.807Z,7.10
2022-08-02T11:36:50.548Z,7.50
2022-08-02T11:39:23.290Z,7.70
2022-08-02T11:41:52.483Z,6.60
2022-08-02T11:44:20.410Z,7.50
2022-08-02T11:47:02.711Z,6.80
2022-08-02T11:49:31.041Z,6.80
2022-08-02T11:52:05.275Z,7.00
2022-08-02T11:54:35.696Z,6.70
2022-08-02T11:57:21.438Z,6.60
2022-08-02T11:59:53.200Z,6.90
2022-08-02T12:02:23.567Z,6.20
2022-08-02T12:05:03.004Z,6.50
2022-08-02T12:07:34.678Z,6.50
2022-08-02T12:10:10.994Z,7.00
2022-08-02T12:12:50.909Z,7.00
2022-08-02T12:15:32.531Z,7.20
2022-08-02T12:18:19.602Z,6.40
2022-08-02T12:20:47.352Z,7.10
2022-08-02T12:23:15.109Z,8.50
2022-08-02T12:25:42.863Z,7.90
2022-08-02T12:28:19.952Z,7.10
2022-08-02T12:30:52.050Z,7.80
2022-08-02T12:33:21.246Z,8.10
2022-08-02T12:35:49.767Z,7.40
2022-08-02T12:38:20.033Z,7.00
2022-08-02T12:40:50.923Z,7.00
2022-08-02T12:43:23.345Z,6.30
2022-08-02T12:45:53.849Z,7.20
2022-08-02T12:48:56.593Z,9.60
2022-08-02T12:51:56.328Z,7.00
2022-08-02T12:54:32.143Z,7.50
2022-08-02T12:57:15.644Z,7.40
2022-08-02T13:00:18.223Z,7.20
2022-08-02T13:06:47.535Z,6.90
2022-08-02T13:10:05.939Z,7.00
2022-08-02T13:13:00.697Z,7.00
2022-08-02T13:15:50.083Z,6.80
2022-08-02T13:18:31.488Z,7.60
2022-08-02T13:21:26.897Z,6.10
2022-08-02T13:24:41.208Z,7.20
2022-08-02T13:27:25.046Z,7.30
2022-08-02T13:29:56.720Z,7.30
2022-08-02T13:32:44.073Z,7.00
2022-08-02T13:35:21.468Z,7.10
2022-08-02T13:37:54.247Z,6.90
2022-08-02T13:41:08.627Z,6.50
2022-08-02T13:44:10.058Z,7.00
2022-08-02T13:46:45.546Z,6.90
2022-08-02T13:49:18.780Z,7.50
2022-08-02T13:51:48.585Z,7.20
2022-08-02T13:54:18.912Z,7.30
2022-08-02T13:57:13.787Z,7.00
2022-08-02T13:59:59.101Z,7.10
2022-08-02T14:04:07.267Z,7.80
2022-08-02T14:05:49.569Z,7.50
2022-08-02T14:08:44.463Z,6.80
2022-08-02T14:12:22.143Z,7.10
2022-08-02T14:15:04.305Z,7.10
2022-08-02T14:17:41.126Z,6.90
2022-08-02T14:20:30.028Z,6.60
2022-08-02T14:22:58.232Z,6.70
2022-08-02T14:25:26.587Z,5.80
2022-08-02T14:27:57.782Z,6.00
2022-08-02T14:30:25.546Z,7.80
2022-08-02T14:32:53.212Z,6.30
2022-08-02T14:35:20.950Z,5.90
2022-08-02T14:37:48.777Z,6.40
2022-08-02T14:40:30.813Z,6.20
2022-08-02T14:43:02.849Z,6.10
2022-08-02T14:45:39.889Z,6.80
2022-08-02T14:48:12.198Z,6.00
2022-08-02T14:50:42.078Z,6.50
2022-08-02T14:53:12.363Z,7.00
2022-08-02T14:55:47.043Z,6.50
2022-08-02T14:58:14.941Z,6.30
2022-08-02T15:00:44.234Z,8.00
2022-08-02T15:03:12.485Z,5.90
2022-08-02T15:05:40.538Z,6.50
2022-08-02T15:08:08.421Z,6.90
2022-08-02T15:10:38.932Z,6.80
2022-08-02T15:13:07.422Z,6.90
2022-08-02T15:15:43.236Z,7.60
2022-08-02T15:18:15.764Z,7.40
2022-08-02T15:20:47.114Z,6.90
2022-08-02T15:23:37.245Z,7.40
2022-08-02T15:26:08.863Z,6.40
2022-08-02T15:28:40.447Z,6.20
2022-08-02T15:31:11.040Z,15.50
2022-08-02T15:33:54.942Z,7.00
2022-08-02T15:36:34.166Z,7.40
2022-08-02T15:39:13.520Z,7.20
2022-08-02T15:41:46.534Z,6.70
2022-08-02T15:44:38.819Z,8.40
2022-08-02T15:47:08.764Z,7.00
2022-08-02T15:49:59.432Z,6.70
2022-08-02T15:52:29.512Z,6.90
2022-08-02T15:55:08.498Z,7.60
2022-08-02T15:57:47.375Z,6.50
2022-08-02T16:00:25.499Z,6.90
2022-08-02T16:02:59.781Z,5.70
2022-08-02T16:05:39.362Z,6.70
2022-08-02T16:08:12.554Z,7.00
2022-08-02T16:10:45.008Z,6.40
2022-08-02T16:13:36.381Z,6.70
2022-08-02T16:16:07.572Z,7.00
2022-08-02T16:18:38.424Z,8.10
2022-08-02T16:21:18.928Z,7.70
2022-08-02T16:23:58.706Z,7.70
2022-08-02T16:26:43.594Z,7.50
2022-08-02T16:29:13.914Z,7.60
2022-08-02T16:31:48.275Z,7.80
2022-08-02T16:34:16.812Z,7.20
2022-08-02T16:36:45.203Z,6.80
2022-08-02T16:39:13.127Z,6.40
2022-08-02T16:41:50.570Z,7.00
2022-08-02T16:44:29.624Z,7.60
2022-08-02T16:47:01.426Z,7.10
2022-08-02T16:50:05.297Z,7.00
2022-08-02T16:52:19.202Z,8.00
2022-08-02T16:54:49.605Z,7.70
2022-08-02T16:57:21.102Z,7.80
2022-08-02T16:59:57.886Z,6.80
2022-08-02T17:02:27.750Z,7.60
2022-08-02T17:04:56.796Z,8.30
2022-08-02T17:08:07.352Z,8.30
2022-08-02T17:10:12.245Z,8.20
2022-08-02T17:12:39.922Z,8.00
2022-08-02T17:16:08.588Z,7.20
2022-08-02T17:17:56.929Z,7.80
2022-08-02T17:20:24.786Z,8.00
2022-08-02T17:22:52.752Z,7.80
2022-08-02T17:25:24.806Z,8.20
2022-08-02T17:27:55.617Z,7.40
2022-08-02T17:30:26.560Z,8.20
2022-08-02T17:32:57.715Z,8.30
2022-08-02T17:35:40.080Z,8.70
2022-08-02T17:38:18.229Z,8.20
2022-08-02T17:40:55.461Z,9.20
2022-08-02T17:43:25.913Z,7.20
2022-08-02T17:46:00.103Z,9.00
2022-08-02T17:49:04.421Z,8.30
2022-08-02T17:51:33.189Z,8.60
2022-08-02T17:54:20.382Z,8.90
2022-08-02T17:56:49.446Z,10.20
2022-08-02T17:59:22.797Z,10.00
2022-08-02T18:02:03.481Z,9.80
2022-08-02T18:04:32.184Z,9.90
2022-08-02T18:07:03.831Z,10.20
2022-08-02T18:09:32.580Z,9.90
2022-08-02T18:12:02.260Z,10.50
2022-08-02T18:14:30.382Z,9.90
2022-08-02T18:16:58.738Z,15.60
2022-08-02T18:19:42.691Z,12.40
2022-08-02T18:22:15.092Z,16.70
2022-08-02T18:24:49.198Z,17.60
2022-08-02T18:27:18.014Z,25.50
2022-08-02T18:29:48.673Z,22.00
2022-08-02T18:33:55.550Z,42.00
2022-08-02T18:35:16.160Z,37.20
2022-08-02T18:37:49.006Z,16.10
2022-08-02T18:40:25.066Z,17.20
2022-08-02T18:42:54.025Z,16.00
2022-08-02T18:45:22.204Z,19.20
2022-08-02T18:47:51.421Z,49.10
2022-08-02T18:50:38.718Z,31.90
2022-08-02T18:53:06.869Z,19.40
2022-08-02T18:55:59.853Z,17.80
2022-08-02T18:58:22.517Z,14.40
2022-08-02T19:00:51.673Z,14.70
2022-08-02T19:03:20.336Z,13.90
2022-08-02T19:05:53.451Z,11.70
2022-08-02T19:08:26.222Z,14.40
2022-08-02T19:11:09.845Z,15.70
2022-08-02T19:13:42.506Z,14.70
2022-08-02T19:16:12.146Z,14.60
2022-08-02T19:18:39.926Z,12.50
2022-08-02T19:21:08.998Z,13.70
2022-08-02T19:23:36.651Z,14.60
2022-08-02T19:26:22.193Z,13.10
2022-08-02T19:28:49.935Z,13.90
2022-08-02T19:31:17.580Z,13.10
2022-08-02T19:34:06.431Z,12.20
2022-08-02T19:36:34.766Z,12.20
2022-08-02T19:39:03.177Z,12.00
2022-08-02T19:41:43.574Z,13.30
2022-08-02T19:44:24.879Z,12.80
2022-08-02T19:46:56.567Z,12.80
2022-08-02T19:49:39.529Z,14.00
2022-08-02T19:52:20.648Z,15.00
2022-08-02T19:54:54.332Z,14.80
2022-08-02T20:00:12.970Z,14.50
2022-08-02T20:02:50.514Z,14.80
2022-08-02T20:05:24.181Z,14.80
2022-08-02T20:07:56.406Z,14.00
2022-08-02T20:10:25.113Z,14.50
2022-08-02T20:12:56.445Z,14.10
2022-08-02T20:15:56.458Z,14.80
2022-08-02T20:18:12.645Z,13.40
2022-08-02T20:20:44.346Z,13.90
2022-08-02T20:23:32.044Z,14.50
2022-08-02T20:26:02.350Z,14.80
2022-08-02T20:28:30.226Z,14.10
2022-08-02T20:30:58.315Z,14.20
2022-08-02T20:33:35.584Z,14.60
2022-08-02T20:36:23.358Z,13.40
2022-08-02T20:38:51.132Z,14.10
2022-08-02T20:41:21.516Z,13.20
2022-08-02T20:43:56.126Z,13.30
2022-08-02T20:46:32.394Z,11.80
2022-08-02T20:49:03.648Z,12.60
2022-08-02T20:51:34.799Z,12.70
2022-08-02T20:54:02.627Z,12.90
2022-08-02T20:56:30.423Z,13.20
2022-08-02T20:59:03.986Z,12.40
2022-08-02T21:01:57.188Z,13.50
2022-08-02T21:04:26.582Z,14.10
2022-08-02T21:06:55.795Z,13.50
2022-08-02T21:09:52.513Z,14.10
2022-08-02T21:12:12.504Z,13.80
2022-08-02T21:14:40.655Z,14.10
2022-08-02T21:17:10.552Z,13.50
2022-08-02T21:19:44.215Z,11.80
2022-08-02T21:22:12.287Z,13.20
2022-08-02T21:24:39.922Z,11.60
2022-08-02T21:27:51.441Z,11.00
2022-08-02T21:29:55.320Z,11.30
2022-08-02T21:32:23.336Z,12.40
2022-08-02T21:34:52.865Z,12.40
2022-08-02T21:37:20.464Z,11.90
2022-08-02T21:39:49.926Z,11.40
2022-08-02T21:42:22.720Z,12.50
2022-08-02T21:44:51.506Z,12.00
2022-08-02T21:47:25.226Z,12.00
2022-08-02T21:50:13.278Z,11.00
2022-08-02T21:52:52.016Z,11.00
2022-08-02T21:55:21.295Z,10.90
2022-08-02T21:57:52.196Z,11.20
2022-08-02T22:00:28.197Z,11.70
2022-08-02T22:02:56.811Z,10.40
2022-08-02T22:05:24.466Z,10.20
2022-08-02T22:07:52.207Z,9.30
2022-08-02T22:10:19.993Z,9.40
2022-08-02T22:12:47.684Z,9.90
2022-08-02T22:15:15.309Z,9.50
2022-08-02T22:17:51.813Z,8.90
2022-08-02T22:20:21.127Z,8.90
2022-08-02T22:22:51.377Z,11.60
2022-08-02T22:25:31.235Z,8.20
2022-08-02T22:28:36.328Z,8.30
2022-08-02T22:30:55.179Z,7.50
2022-08-02T22:33:47.160Z,6.60
2022-08-02T22:36:30.946Z,12.60
2022-08-02T22:38:59.697Z,9.50
2022-08-02T22:42:01.816Z,7.20
2022-08-02T22:44:16.920Z,8.20
2022-08-02T22:46:47.059Z,9.70
2022-08-02T22:49:39.061Z,10.70
2022-08-02T22:52:06.762Z,9.00
2022-08-02T22:54:34.932Z,7.30
2022-08-02T22:57:02.573Z,7.60
2022-08-02T22:58:54.019Z,14.40
2022-08-02T22:59:36.394Z,8.90
2022-08-02T23:02:09.325Z,7.30
2022-08-02T23:04:37.699Z,6.80
2022-08-02T23:07:05.668Z,6.30
2022-08-02T23:09:33.450Z,6.80
2022-08-02T23:12:01.157Z,8.10
2022-08-02T23:14:29.095Z,6.40
2022-08-02T23:17:15.300Z,9.70
2022-08-02T23:19:52.026Z,9.20
2022-08-02T23:22:29.203Z,8.20
2022-08-02T23:24:58.918Z,7.50
2022-08-02T23:27:26.830Z,7.50
2022-08-02T23:29:54.673Z,7.60
2022-08-02T23:32:22.983Z,10.00
2022-08-02T23:34:54.906Z,9.20
2022-08-02T23:37:23.191Z,7.70
2022-08-02T23:39:51.509Z,8.40
2022-08-02T23:42:19.483Z,8.80
2022-08-02T23:44:47.360Z,7.10
2022-08-02T23:47:16.933Z,7.40
2022-08-02T23:49:44.771Z,7.60
2022-08-02T23:52:13.021Z,10.10
2022-08-02T23:54:40.705Z,10.80
2022-08-02T23:57:20.688Z,10.30
2022-08-02T23:59:51.134Z,7.10
